Terminal Aerodrome Forecast
Issued by NWS

Home | Current Version | Previous Version | Text Only | Print | Product List | Glossary On
Versions: 1 2 3 4 5 6 7 8 9 10 11 12 13 14 15 16 17
000
FTUS43 KBIS 282110 AAB
TAFDIK
TAF AMD
KDIK 282110Z 2821/2918 26003KT P6SM -RA SCT040 OVC100
     FM290000 30007KT P6SM BKN060
     FM290300 28006KT P6SM FEW250=

USA.gov is the U.S. government's official web portal to all federal, state and local government web resources and services.